createdAt,value
2022-10-11T00:00:11.746Z,100256.31
2022-10-11T00:00:44.183Z,100256.09
2022-10-11T00:01:16.189Z,100258.56
2022-10-11T00:01:48.112Z,100258.28
2022-10-11T00:02:20.114Z,100258.91
2022-10-11T00:02:51.958Z,100257.69
2022-10-11T00:03:23.777Z,100257.09
2022-10-11T00:03:55.622Z,100261.94
2022-10-11T00:04:27.437Z,100259.47
2022-10-11T00:04:59.232Z,100258.56
2022-10-11T00:05:31.270Z,100262.38
2022-10-11T00:06:05.897Z,100255.31
2022-10-11T00:06:38.538Z,100259.31
2022-10-11T00:07:10.401Z,100258.28
2022-10-11T00:07:42.268Z,100256.91
2022-10-11T00:08:14.583Z,100262.59
2022-10-11T00:08:46.437Z,100260.41
2022-10-11T00:09:18.275Z,100257.84
2022-10-11T00:09:50.151Z,100258.22
2022-10-11T00:10:22.222Z,100251.47
2022-10-11T00:11:01.944Z,100252.78
2022-10-11T00:11:34.213Z,100255.28
2022-10-11T00:12:06.897Z,100257.41
2022-10-11T00:12:38.837Z,100258.69
2022-10-11T00:13:10.797Z,100253.03
2022-10-11T00:13:42.636Z,100252.97
2022-10-11T00:14:14.704Z,100258.31
2022-10-11T00:14:46.507Z,100261.56
2022-10-11T00:15:21.138Z,100254.53
2022-10-11T00:15:53.484Z,100254.22
2022-10-11T00:16:25.320Z,100249.78
2022-10-11T00:16:57.478Z,100253.34
2022-10-11T00:17:29.456Z,100246.59
2022-10-11T00:18:05.256Z,100257.22
2022-10-11T00:18:38.330Z,100249.91
2022-10-11T00:19:11.373Z,100251.91
2022-10-11T00:19:43.181Z,100247.94
2022-10-11T00:20:15.018Z,100248.97
2022-10-11T00:20:46.843Z,100249.78
2022-10-11T00:21:20.628Z,100250.22
2022-10-11T00:21:52.449Z,100253.28
2022-10-11T00:22:24.572Z,100247.41
2022-10-11T00:22:56.431Z,100245.75
2022-10-11T00:23:28.231Z,100245.47
2022-10-11T00:24:00.192Z,100248.09
2022-10-11T00:24:32.030Z,100249.00
2022-10-11T00:25:06.097Z,100245.34
2022-10-11T00:25:37.990Z,100253.13
2022-10-11T00:26:11.365Z,100248.13
2022-10-11T00:26:46.807Z,100247.53
2022-10-11T00:27:19.653Z,100248.78
2022-10-11T00:27:51.942Z,100248.31
2022-10-11T00:28:23.847Z,100245.78
2022-10-11T00:28:55.779Z,100245.34
2022-10-11T00:29:27.697Z,100249.78
2022-10-11T00:29:59.508Z,100250.41
2022-10-11T00:30:32.330Z,100242.97
2022-10-11T00:31:11.072Z,100243.41
2022-10-11T00:31:43.080Z,100243.44
2022-10-11T00:32:14.912Z,100245.09
2022-10-11T00:32:46.763Z,100246.09
2022-10-11T00:33:19.024Z,100243.09
2022-10-11T00:33:50.971Z,100249.41
2022-10-11T00:34:23.016Z,100239.34
2022-10-11T00:34:56.174Z,100240.81
2022-10-11T00:35:28.035Z,100246.28
2022-10-11T00:36:01.581Z,100240.59
2022-10-11T00:36:34.090Z,100239.22
2022-10-11T00:37:06.026Z,100245.06
2022-10-11T00:37:39.455Z,100244.88
2022-10-11T00:38:11.528Z,100242.88
2022-10-11T00:38:44.551Z,100250.16
2022-10-11T00:39:16.508Z,100243.06
2022-10-11T00:39:49.461Z,100243.06
2022-10-11T00:40:21.508Z,100240.84
2022-10-11T00:40:53.425Z,100239.00
2022-10-11T00:41:25.294Z,100231.53
2022-10-11T00:41:57.148Z,100238.84
2022-10-11T00:42:29.031Z,100237.78
2022-10-11T00:43:00.891Z,100238.25
2022-10-11T00:43:33.045Z,100239.22
2022-10-11T00:44:12.844Z,100235.53
2022-10-11T00:44:48.964Z,100240.34
2022-10-11T00:45:40.936Z,100235.53
2022-10-11T00:46:18.734Z,100233.94
2022-10-11T00:47:12.553Z,100237.78
2022-10-11T00:47:44.412Z,100238.75
2022-10-11T00:48:27.659Z,100241.53
2022-10-11T00:49:14.584Z,100235.88
2022-10-11T00:49:59.453Z,100241.75
2022-10-11T00:50:33.828Z,100243.91
2022-10-11T00:51:16.451Z,100243.47
2022-10-11T00:51:56.691Z,100243.63
2022-10-11T00:52:43.324Z,100245.47
2022-10-11T00:53:15.524Z,100241.41
2022-10-11T00:53:50.181Z,100237.00
2022-10-11T00:54:25.712Z,100235.00
2022-10-11T00:55:01.406Z,100240.69
2022-10-11T00:55:38.969Z,100238.84
2022-10-11T00:56:19.708Z,100232.06
2022-10-11T00:56:54.079Z,100233.06
2022-10-11T00:57:30.963Z,100234.75
2022-10-11T00:58:03.137Z,100226.72
2022-10-11T00:58:37.121Z,100236.84
2022-10-11T00:59:13.930Z,100232.81
2022-10-11T00:59:50.424Z,100235.03
2022-10-11T01:00:22.685Z,100235.28
2022-10-11T01:00:54.845Z,100227.25
2022-10-11T01:01:27.231Z,100232.47
2022-10-11T01:01:59.294Z,100234.06
2022-10-11T01:02:31.363Z,100227.00
2022-10-11T01:03:04.853Z,100234.88
2022-10-11T01:03:38.652Z,100232.94
2022-10-11T01:04:10.512Z,100236.94
2022-10-11T01:04:42.848Z,100231.66
2022-10-11T01:05:29.367Z,100232.22
2022-10-11T01:06:03.845Z,100234.53
2022-10-11T01:06:36.057Z,100236.91
2022-10-11T01:07:09.519Z,100234.16
2022-10-11T01:07:42.180Z,100230.06
2022-10-11T01:08:14.028Z,100234.38
2022-10-11T01:08:46.511Z,100233.97
2022-10-11T01:09:20.180Z,100229.72
2022-10-11T01:09:52.056Z,100234.56
2022-10-11T01:10:23.942Z,100236.97
2022-10-11T01:10:56.792Z,100232.50
2022-10-11T01:11:31.129Z,100225.41
2022-10-11T01:12:07.045Z,100229.03
2022-10-11T01:13:03.685Z,100231.28
2022-10-11T01:13:57.240Z,100228.28
2022-10-11T01:14:57.020Z,100226.84
2022-10-11T01:15:42.497Z,100227.25
2022-10-11T01:16:30.835Z,100231.28
2022-10-11T01:17:27.519Z,100228.84
2022-10-11T01:18:22.420Z,100229.47
2022-10-11T01:19:06.148Z,100233.09
2022-10-11T01:20:02.367Z,100233.91
2022-10-11T01:20:57.024Z,100224.78
2022-10-11T01:21:52.191Z,100240.09
2022-10-11T01:23:08.204Z,100241.25
2022-10-11T01:23:54.503Z,100230.59
2022-10-11T01:24:28.988Z,100232.44
2022-10-11T01:25:12.695Z,100230.84
2022-10-11T01:25:44.499Z,100231.66
2022-10-11T01:26:31.465Z,100229.25
2022-10-11T01:27:25.482Z,100236.34
2022-10-11T01:28:09.499Z,100233.78
2022-10-11T01:29:11.403Z,100229.72
2022-10-11T01:30:04.419Z,100239.41
2022-10-11T01:30:37.941Z,100236.41
2022-10-11T01:31:24.063Z,100226.72
2022-10-11T01:32:07.382Z,100234.75
2022-10-11T01:32:49.108Z,100234.09
2022-10-11T01:33:45.415Z,100226.13
2022-10-11T01:34:44.939Z,100218.09
2022-10-11T01:35:25.702Z,100234.00
2022-10-11T01:36:16.282Z,100227.50
2022-10-11T01:37:15.229Z,100224.44
2022-10-11T01:38:10.229Z,100228.66
2022-10-11T01:38:47.084Z,100221.56
2022-10-11T01:39:29.287Z,100226.81
2022-10-11T01:40:06.249Z,100227.25
2022-10-11T01:40:44.291Z,100234.50
2022-10-11T01:41:23.604Z,100227.00
2022-10-11T01:42:00.831Z,100221.56
2022-10-11T01:42:33.771Z,100230.06
2022-10-11T01:43:06.290Z,100223.84
2022-10-11T01:43:40.518Z,100224.09
2022-10-11T01:44:13.515Z,100224.91
2022-10-11T01:44:49.137Z,100226.50
2022-10-11T01:45:22.002Z,100227.34
2022-10-11T01:45:56.216Z,100228.72
2022-10-11T01:46:32.165Z,100224.50
2022-10-11T01:47:04.130Z,100225.09
2022-10-11T01:47:36.026Z,100225.09
2022-10-11T01:48:10.756Z,100228.72
2022-10-11T01:48:54.067Z,100232.16
2022-10-11T01:49:26.271Z,100228.13
2022-10-11T01:50:00.877Z,100229.34
2022-10-11T01:50:35.234Z,100235.75
2022-10-11T01:51:07.127Z,100225.25
2022-10-11T01:51:50.230Z,100224.56
2022-10-11T01:52:22.903Z,100225.00
2022-10-11T01:52:57.099Z,100227.41
2022-10-11T01:53:43.758Z,100222.94
2022-10-11T01:54:50.249Z,100226.19
2022-10-11T01:55:39.522Z,100216.56
2022-10-11T01:56:36.353Z,100218.38
2022-10-11T01:57:10.877Z,100212.94
2022-10-11T01:57:59.909Z,100219.78
2022-10-11T01:58:59.453Z,100218.53
2022-10-11T01:59:58.451Z,100221.75
2022-10-11T02:00:53.826Z,100211.62
2022-10-11T02:01:44.417Z,100210.41
2022-10-11T02:02:19.378Z,100214.19
2022-10-11T02:03:18.561Z,100219.41
2022-10-11T02:04:04.777Z,100218.59
2022-10-11T02:04:50.852Z,100215.03
2022-10-11T02:05:38.149Z,100212.41
2022-10-11T02:06:16.036Z,100220.44
2022-10-11T02:07:02.816Z,100217.41
2022-10-11T02:07:45.465Z,100217.84
2022-10-11T02:08:37.726Z,100217.66
2022-10-11T02:09:25.486Z,100214.59
2022-10-11T02:10:36.302Z,100217.59
2022-10-11T02:11:28.882Z,100221.66
2022-10-11T02:12:07.483Z,100215.09
2022-10-11T02:13:11.624Z,100226.56
2022-10-11T02:13:50.083Z,100219.13
2022-10-11T02:14:27.026Z,100220.34
2022-10-11T02:15:02.725Z,100218.00
2022-10-11T02:15:39.290Z,100220.63
2022-10-11T02:16:15.023Z,100226.22
2022-10-11T02:16:52.432Z,100216.56
2022-10-11T02:17:32.273Z,100219.38
2022-10-11T02:18:10.096Z,100219.59
2022-10-11T02:18:47.005Z,100220.56
2022-10-11T02:19:24.942Z,100217.34
2022-10-11T02:19:59.342Z,100212.53
2022-10-11T02:20:33.672Z,100221.38
2022-10-11T02:21:09.577Z,100218.97
2022-10-11T02:21:44.418Z,100213.94
2022-10-11T02:22:23.057Z,100218.75
2022-10-11T02:23:03.738Z,100215.34
2022-10-11T02:23:42.327Z,100212.72
2022-10-11T02:24:27.624Z,100212.78
2022-10-11T02:25:03.368Z,100216.56
2022-10-11T02:25:36.589Z,100212.34
2022-10-11T02:26:11.644Z,100214.97
2022-10-11T02:26:49.224Z,100210.16
2022-10-11T02:27:25.689Z,100206.97
2022-10-11T02:28:01.016Z,100215.81
2022-10-11T02:28:37.817Z,100205.75
2022-10-11T02:29:12.348Z,100206.97
2022-10-11T02:29:47.586Z,100212.00
2022-10-11T02:30:19.461Z,100217.06
2022-10-11T02:30:53.671Z,100209.41
2022-10-11T02:31:26.270Z,100205.59
2022-10-11T02:32:00.593Z,100209.63
2022-10-11T02:32:34.001Z,100207.81
2022-10-11T02:33:09.291Z,100205.56
2022-10-11T02:33:48.134Z,100209.00
2022-10-11T02:34:26.356Z,100195.50
2022-10-11T02:35:00.958Z,100198.50
2022-10-11T02:35:39.096Z,100207.59
2022-10-11T02:36:28.717Z,100199.75
2022-10-11T02:37:28.023Z,100198.16
2022-10-11T02:38:12.392Z,100205.38
2022-10-11T02:38:50.766Z,100198.97
2022-10-11T02:39:51.643Z,100209.19
2022-10-11T02:40:35.343Z,100203.59
2022-10-11T02:41:18.185Z,100211.81
2022-10-11T02:41:52.984Z,100211.00
2022-10-11T02:42:30.899Z,100211.19
2022-10-11T02:43:13.295Z,100207.94
2022-10-11T02:44:08.229Z,100209.78
2022-10-11T02:45:08.039Z,100208.97
2022-10-11T02:45:54.126Z,100210.19
2022-10-11T02:46:30.470Z,100216.59
2022-10-11T02:47:03.819Z,100212.16
2022-10-11T02:47:36.548Z,100214.78
2022-10-11T02:48:10.379Z,100210.16
2022-10-11T02:48:42.306Z,100217.16
2022-10-11T02:49:16.414Z,100212.53
2022-10-11T02:49:48.272Z,100212.94
2022-10-11T02:50:22.298Z,100211.78
2022-10-11T02:50:56.129Z,100221.03
2022-10-11T02:51:31.734Z,100212.81
2022-10-11T02:52:05.758Z,100211.00
2022-10-11T02:52:37.626Z,100213.78
2022-10-11T02:53:09.809Z,100216.00
2022-10-11T02:53:41.684Z,100217.81
2022-10-11T02:54:13.493Z,100219.00
2022-10-11T02:54:45.637Z,100213.97
2022-10-11T02:55:17.572Z,100217.81
2022-10-11T02:55:51.708Z,100212.59
2022-10-11T02:56:23.565Z,100214.22
2022-10-11T02:56:55.398Z,100216.81
2022-10-11T02:57:27.258Z,100216.84
2022-10-11T02:57:59.128Z,100219.44
2022-10-11T02:58:30.988Z,100217.63
2022-10-11T02:59:02.879Z,100214.41
2022-10-11T02:59:34.750Z,100217.44
2022-10-11T03:00:07.898Z,100223.47
2022-10-11T03:00:39.781Z,100221.03
2022-10-11T03:01:11.628Z,100219.63
2022-10-11T03:01:43.639Z,100226.66
2022-10-11T03:02:15.588Z,100221.84
2022-10-11T03:02:47.492Z,100222.03
2022-10-11T03:03:19.522Z,100227.03
2022-10-11T03:03:51.356Z,100226.22
2022-10-11T03:04:23.233Z,100234.91
2022-10-11T03:04:55.047Z,100223.66
2022-10-11T03:05:27.192Z,100229.66
2022-10-11T03:06:01.915Z,100232.25
2022-10-11T03:06:34.125Z,100230.44
2022-10-11T03:07:05.955Z,100228.41
2022-10-11T03:07:37.826Z,100230.44
2022-10-11T03:08:11.573Z,100234.88
2022-10-11T03:08:43.399Z,100237.88
2022-10-11T03:09:15.222Z,100230.63
2022-10-11T03:09:47.173Z,100234.69
2022-10-11T03:10:19.039Z,100233.06
2022-10-11T03:10:51.137Z,100234.31
2022-10-11T03:11:22.955Z,100233.94
2022-10-11T03:11:54.761Z,100234.50
2022-10-11T03:12:26.577Z,100235.97
2022-10-11T03:12:58.386Z,100235.94
2022-10-11T03:13:30.247Z,100230.72
2022-10-11T03:14:02.066Z,100221.47
2022-10-11T03:14:33.913Z,100231.09
2022-10-11T03:15:06.245Z,100226.66
2022-10-11T03:15:38.080Z,100232.88
2022-10-11T03:16:10.723Z,100228.06
2022-10-11T03:16:42.918Z,100233.09
2022-10-11T03:17:34.915Z,100229.25
2022-10-11T03:18:06.595Z,100226.66
2022-10-11T03:18:38.479Z,100224.59
2022-10-11T03:19:14.667Z,100227.00
2022-10-11T03:19:50.269Z,100230.81
2022-10-11T03:20:22.137Z,100234.63
2022-10-11T03:20:54.204Z,100220.75
2022-10-11T03:21:26.502Z,100232.00
2022-10-11T03:21:58.315Z,100225.59
2022-10-11T03:22:30.269Z,100229.41
2022-10-11T03:23:02.222Z,100228.00
2022-10-11T03:23:34.217Z,100229.59
2022-10-11T03:24:06.398Z,100224.56
2022-10-11T03:24:38.288Z,100225.78
2022-10-11T03:25:10.096Z,100236.66
2022-10-11T03:25:41.902Z,100230.63
2022-10-11T03:26:13.997Z,100229.81
2022-10-11T03:26:46.192Z,100227.19
2022-10-11T03:27:18.033Z,100232.03
2022-10-11T03:27:50.027Z,100229.81
2022-10-11T03:28:22.170Z,100227.88
2022-10-11T03:28:54.114Z,100236.13
2022-10-11T03:29:26.001Z,100235.12
2022-10-11T03:29:57.911Z,100237.94
2022-10-11T03:30:29.916Z,100232.31
2022-10-11T03:31:01.781Z,100229.69
2022-10-11T03:31:33.620Z,100234.31
2022-10-11T03:32:05.847Z,100235.34
2022-10-11T03:32:37.822Z,100237.13
2022-10-11T03:33:09.719Z,100237.31
2022-10-11T03:33:41.576Z,100240.53
2022-10-11T03:34:13.467Z,100247.59
2022-10-11T03:34:45.319Z,100237.13
2022-10-11T03:35:17.853Z,100235.12
2022-10-11T03:35:50.594Z,100237.53
2022-10-11T03:36:22.554Z,100234.31
2022-10-11T03:36:54.366Z,100236.09
2022-10-11T03:37:26.655Z,100239.12
2022-10-11T03:37:58.477Z,100243.56
2022-10-11T03:38:30.279Z,100237.94
2022-10-11T03:39:03.413Z,100239.97
2022-10-11T03:39:35.283Z,100240.56
2022-10-11T03:40:08.739Z,100246.03
2022-10-11T03:40:41.990Z,100246.03
2022-10-11T03:41:13.887Z,100245.22
2022-10-11T03:41:45.758Z,100237.97
2022-10-11T03:42:17.580Z,100241.59
2022-10-11T03:42:49.841Z,100238.75
2022-10-11T03:43:21.687Z,100237.94
2022-10-11T03:43:53.501Z,100237.94
2022-10-11T03:44:25.419Z,100243.59
2022-10-11T03:44:57.307Z,100244.19
2022-10-11T03:45:29.128Z,100234.13
2022-10-11T03:46:01.049Z,100235.94
2022-10-11T03:46:32.981Z,100240.97
2022-10-11T03:47:05.568Z,100236.72
2022-10-11T03:47:38.718Z,100236.69
2022-10-11T03:48:11.625Z,100234.69
2022-10-11T03:48:43.444Z,100228.19
2022-10-11T03:49:15.265Z,100227.63
2022-10-11T03:49:47.158Z,100236.28
2022-10-11T03:50:19.023Z,100234.25
2022-10-11T03:50:51.045Z,100236.28
2022-10-11T03:51:22.910Z,100233.09
2022-10-11T03:51:54.822Z,100229.88
2022-10-11T03:52:26.672Z,100231.09
2022-10-11T03:52:58.672Z,100235.12
2022-10-11T03:53:30.779Z,100228.28
2022-10-11T03:54:02.625Z,100233.94
2022-10-11T03:54:34.475Z,100234.13
2022-10-11T03:55:07.287Z,100232.53
2022-10-11T03:55:40.307Z,100234.72
2022-10-11T03:56:12.339Z,100241.38
2022-10-11T03:56:44.466Z,100236.94
2022-10-11T03:57:16.276Z,100232.12
2022-10-11T03:57:48.128Z,100230.28
2022-10-11T03:58:20.206Z,100231.88
2022-10-11T03:58:52.308Z,100229.06
2022-10-11T03:59:24.504Z,100232.12
2022-10-11T03:59:56.352Z,100235.94
2022-10-11T04:00:28.320Z,100233.09
2022-10-11T04:01:00.704Z,100240.34
2022-10-11T04:01:37.565Z,100233.47
2022-10-11T04:02:09.608Z,100238.09
2022-10-11T04:02:41.424Z,100240.75
2022-10-11T04:03:13.362Z,100241.56
2022-10-11T04:03:45.218Z,100237.13
2022-10-11T04:04:17.237Z,100238.31
2022-10-11T04:04:49.062Z,100235.91
2022-10-11T04:05:20.934Z,100247.19
2022-10-11T04:05:52.824Z,100242.34
2022-10-11T04:06:25.282Z,100249.63
2022-10-11T04:06:57.156Z,100246.78
2022-10-11T04:07:29.288Z,100240.75
2022-10-11T04:08:01.135Z,100233.50
2022-10-11T04:08:33.096Z,100239.91
2022-10-11T04:09:05.089Z,100240.13
2022-10-11T04:09:37.018Z,100236.47
2022-10-11T04:10:09.087Z,100238.28
2022-10-11T04:10:41.371Z,100237.44
2022-10-11T04:11:13.245Z,100231.84
2022-10-11T04:11:45.391Z,100234.84
2022-10-11T04:12:17.213Z,100245.50
2022-10-11T04:12:49.064Z,100243.50
2022-10-11T04:13:20.895Z,100243.72
2022-10-11T04:13:52.811Z,100244.09
2022-10-11T04:14:24.689Z,100246.53
2022-10-11T04:14:56.554Z,100249.94
2022-10-11T04:15:28.430Z,100244.28
2022-10-11T04:16:00.359Z,100243.47
2022-10-11T04:16:32.268Z,100249.94
2022-10-11T04:17:04.410Z,100240.09
2022-10-11T04:17:36.227Z,100250.34
2022-10-11T04:18:09.023Z,100246.34
2022-10-11T04:18:41.026Z,100243.91
2022-10-11T04:19:13.044Z,100253.34
2022-10-11T04:19:44.907Z,100247.56
2022-10-11T04:20:16.987Z,100247.53
2022-10-11T04:20:48.868Z,100254.78
2022-10-11T04:21:20.823Z,100251.97
2022-10-11T04:21:52.631Z,100246.72
2022-10-11T04:22:24.815Z,100257.19
2022-10-11T04:22:56.652Z,100260.41
2022-10-11T04:23:31.366Z,100254.37
2022-10-11T04:24:03.274Z,100257.37
2022-10-11T04:24:35.129Z,100260.44
2022-10-11T04:25:08.221Z,100258.38
2022-10-11T04:25:40.114Z,100256.59
2022-10-11T04:26:12.132Z,100257.78
2022-10-11T04:26:44.048Z,100257.56
2022-10-11T04:27:15.962Z,100260.38
2022-10-11T04:27:48.627Z,100260.97
2022-10-11T04:28:20.572Z,100266.00
2022-10-11T04:28:52.605Z,100261.34
2022-10-11T04:29:30.063Z,100257.13
2022-10-11T04:30:05.102Z,100261.94
2022-10-11T04:30:37.056Z,100259.75
2022-10-11T04:31:08.950Z,100258.34
2022-10-11T04:31:40.823Z,100262.59
2022-10-11T04:32:12.682Z,100255.75
2022-10-11T04:32:45.239Z,100254.13
2022-10-11T04:33:17.457Z,100253.72
2022-10-11T04:33:49.508Z,100257.13
2022-10-11T04:34:21.434Z,100256.50
2022-10-11T04:34:53.737Z,100261.50
2022-10-11T04:35:25.677Z,100253.09
2022-10-11T04:35:57.713Z,100254.69
2022-10-11T04:36:32.776Z,100251.00
2022-10-11T04:37:04.666Z,100259.03
2022-10-11T04:37:36.591Z,100261.41
2022-10-11T04:38:08.526Z,100263.00
2022-10-11T04:38:40.649Z,100254.16
2022-10-11T04:39:12.988Z,100259.44
2022-10-11T04:39:45.077Z,100253.25
2022-10-11T04:40:16.959Z,100253.09
2022-10-11T04:40:48.866Z,100263.50
2022-10-11T04:41:20.704Z,100257.66
2022-10-11T04:41:52.703Z,100257.81
2022-10-11T04:42:24.567Z,100257.81
2022-10-11T04:42:56.602Z,100253.78
2022-10-11T04:43:28.412Z,100257.56
2022-10-11T04:44:01.883Z,100255.13
2022-10-11T04:44:33.708Z,100259.97
2022-10-11T04:45:06.245Z,100261.56
2022-10-11T04:45:38.240Z,100259.38
2022-10-11T04:46:10.877Z,100260.59
2022-10-11T04:46:43.232Z,100259.81
2022-10-11T04:47:16.091Z,100255.34
2022-10-11T04:47:48.795Z,100256.97
2022-10-11T04:48:20.625Z,100252.59
2022-10-11T04:48:52.478Z,100256.19
2022-10-11T04:49:24.688Z,100252.12
2022-10-11T04:49:56.556Z,100252.50
2022-10-11T04:50:28.390Z,100254.72
2022-10-11T04:51:02.172Z,100250.87
2022-10-11T04:51:34.117Z,100251.88
2022-10-11T04:52:06.152Z,100255.56
2022-10-11T04:52:38.011Z,100256.19
2022-10-11T04:53:09.903Z,100256.81
2022-10-11T04:53:41.803Z,100252.00
2022-10-11T04:54:13.770Z,100246.56
2022-10-11T04:54:45.905Z,100255.38
2022-10-11T04:55:17.876Z,100252.94
2022-10-11T04:56:07.827Z,100259.81
2022-10-11T04:56:40.082Z,100263.00
2022-10-11T04:57:11.902Z,100263.75
2022-10-11T04:57:43.767Z,100261.37
2022-10-11T04:58:15.586Z,100259.81
2022-10-11T04:58:54.018Z,100257.81
2022-10-11T04:59:25.968Z,100261.88
2022-10-11T04:59:58.197Z,100261.22
2022-10-11T05:00:30.311Z,100265.69
2022-10-11T05:01:02.443Z,100264.72
2022-10-11T05:01:34.493Z,100262.56
2022-10-11T05:02:06.466Z,100257.91
2022-10-11T05:02:38.428Z,100262.91
2022-10-11T05:03:10.300Z,100263.25
2022-10-11T05:03:42.154Z,100264.63
2022-10-11T05:04:14.053Z,100265.78
2022-10-11T05:04:46.209Z,100256.94
2022-10-11T05:05:18.412Z,100258.94
2022-10-11T05:05:50.659Z,100256.31
2022-10-11T05:06:22.510Z,100265.22
2022-10-11T05:06:54.582Z,100255.97
2022-10-11T05:07:26.495Z,100262.62
2022-10-11T05:07:58.362Z,100260.97
2022-10-11T05:08:30.482Z,100255.34
2022-10-11T05:09:02.343Z,100259.38
2022-10-11T05:09:34.660Z,100256.16
2022-10-11T05:10:07.238Z,100259.59
2022-10-11T05:10:39.432Z,100253.00
2022-10-11T05:11:15.783Z,100254.19
2022-10-11T05:11:48.039Z,100259.84
2022-10-11T05:12:20.010Z,100254.34
2022-10-11T05:12:51.846Z,100252.97
2022-10-11T05:13:24.299Z,100256.75
2022-10-11T05:13:56.674Z,100261.37
2022-10-11T05:14:28.579Z,100266.78
2022-10-11T05:15:00.482Z,100260.59
2022-10-11T05:15:32.340Z,100254.00
2022-10-11T05:16:08.370Z,100260.78
2022-10-11T05:16:42.609Z,100260.00
2022-10-11T05:17:14.477Z,100255.06
2022-10-11T05:17:46.309Z,100253.44
2022-10-11T05:18:18.370Z,100251.56
2022-10-11T05:18:50.260Z,100257.41
2022-10-11T05:19:22.123Z,100249.72
2022-10-11T05:19:53.981Z,100257.56
2022-10-11T05:20:26.570Z,100253.28
2022-10-11T05:21:06.851Z,100261.53
2022-10-11T05:21:39.020Z,100255.25
2022-10-11T05:22:10.844Z,100254.00
2022-10-11T05:22:42.679Z,100251.16
2022-10-11T05:23:14.909Z,100255.56
2022-10-11T05:23:48.504Z,100250.06
2022-10-11T05:24:20.424Z,100252.25
2022-10-11T05:24:52.232Z,100252.84
2022-10-11T05:25:24.055Z,100259.12
2022-10-11T05:25:55.961Z,100257.13
2022-10-11T05:26:28.308Z,100256.72
2022-10-11T05:27:03.368Z,100252.84
2022-10-11T05:27:35.582Z,100254.44
2022-10-11T05:28:07.679Z,100249.44
2022-10-11T05:28:39.884Z,100253.94
2022-10-11T05:29:11.818Z,100248.44
2022-10-11T05:29:43.747Z,100257.34
2022-10-11T05:30:15.765Z,100259.88
2022-10-11T05:30:47.620Z,100263.28
2022-10-11T05:31:20.167Z,100257.59
2022-10-11T05:31:51.990Z,100263.38
2022-10-11T05:32:27.689Z,100264.56
2022-10-11T05:33:00.131Z,100255.47
2022-10-11T05:33:32.653Z,100266.28
2022-10-11T05:34:04.671Z,100265.84
2022-10-11T05:34:36.557Z,100261.66
2022-10-11T05:35:08.895Z,100260.19
2022-10-11T05:35:40.888Z,100261.37
2022-10-11T05:36:13.001Z,100260.19
2022-10-11T05:36:44.809Z,100259.78
2022-10-11T05:37:16.659Z,100262.66
2022-10-11T05:37:48.808Z,100264.69
2022-10-11T05:38:20.686Z,100266.88
2022-10-11T05:38:52.542Z,100263.94
2022-10-11T05:39:24.487Z,100261.69
2022-10-11T05:39:56.602Z,100260.69
2022-10-11T05:40:28.406Z,100266.12
2022-10-11T05:41:01.742Z,100263.66
2022-10-11T05:41:33.731Z,100261.25
2022-10-11T05:42:09.789Z,100263.47
2022-10-11T05:42:41.921Z,100261.69
2022-10-11T05:43:14.182Z,100267.97
2022-10-11T05:43:46.086Z,100258.44
2022-10-11T05:44:17.930Z,100265.84
2022-10-11T05:44:49.726Z,100258.25
2022-10-11T05:45:21.552Z,100261.84
2022-10-11T05:45:53.459Z,100261.81
2022-10-11T05:46:25.280Z,100259.03
2022-10-11T05:46:57.153Z,100261.81
2022-10-11T05:47:29.214Z,100259.34
2022-10-11T05:48:01.056Z,100268.59
2022-10-11T05:48:33.409Z,100261.66
2022-10-11T05:49:05.245Z,100264.25
2022-10-11T05:49:37.251Z,100266.28
2022-10-11T05:50:09.582Z,100272.50
2022-10-11T05:50:41.457Z,100264.44
2022-10-11T05:51:13.396Z,100266.66
2022-10-11T05:51:45.276Z,100271.88
2022-10-11T05:52:20.433Z,100269.66
2022-10-11T05:52:52.322Z,100277.69
2022-10-11T05:53:24.128Z,100280.75
2022-10-11T05:53:56.240Z,100278.53
2022-10-11T05:54:31.474Z,100277.97
2022-10-11T05:55:04.332Z,100278.97
2022-10-11T05:55:38.226Z,100275.50
2022-10-11T05:56:24.803Z,100281.69
2022-10-11T05:56:56.760Z,100279.56
2022-10-11T05:57:28.734Z,100282.19
2022-10-11T05:58:00.565Z,100280.25
2022-10-11T05:58:32.442Z,100273.63
2022-10-11T05:59:05.045Z,100285.50
2022-10-11T05:59:37.013Z,100281.19
2022-10-11T06:00:09.587Z,100284.94
2022-10-11T06:00:44.351Z,100290.75
2022-10-11T06:01:22.206Z,100284.75
2022-10-11T06:01:54.153Z,100292.91
2022-10-11T06:02:26.148Z,100291.19
2022-10-11T06:02:57.971Z,100286.16
2022-10-11T06:03:29.823Z,100292.56
2022-10-11T06:04:02.585Z,100294.84
2022-10-11T06:04:37.475Z,100297.16
2022-10-11T06:05:09.586Z,100292.84
2022-10-11T06:05:41.563Z,100286.03
2022-10-11T06:06:13.451Z,100284.50
2022-10-11T06:06:45.708Z,100294.50
2022-10-11T06:07:17.544Z,100296.41
2022-10-11T06:07:49.385Z,100291.19
2022-10-11T06:08:21.280Z,100296.94
2022-10-11T06:08:53.131Z,100292.84
2022-10-11T06:09:24.975Z,100291.97
2022-10-11T06:09:56.820Z,100302.28
2022-10-11T06:10:28.814Z,100302.63
2022-10-11T06:11:12.056Z,100304.94
2022-10-11T06:11:45.476Z,100305.56
2022-10-11T06:12:17.977Z,100297.72
2022-10-11T06:12:49.895Z,100304.78
2022-10-11T06:13:21.741Z,100299.16
2022-10-11T06:13:55.652Z,100297.25
2022-10-11T06:14:27.738Z,100298.44
2022-10-11T06:15:00.141Z,100297.38
2022-10-11T06:15:32.465Z,100297.28
2022-10-11T06:16:05.148Z,100300.06
2022-10-11T06:16:37.703Z,100308.88
2022-10-11T06:17:09.667Z,100303.47
2022-10-11T06:17:41.897Z,100303.16
2022-10-11T06:18:14.090Z,100299.31
2022-10-11T06:18:46.062Z,100307.50
2022-10-11T06:19:17.897Z,100308.94
2022-10-11T06:19:50.404Z,100307.16
2022-10-11T06:20:22.285Z,100308.66
2022-10-11T06:20:54.151Z,100314.75
2022-10-11T06:21:26.203Z,100312.50
2022-10-11T06:21:58.097Z,100310.97
2022-10-11T06:22:29.950Z,100315.44
2022-10-11T06:23:02.113Z,100316.25
2022-10-11T06:23:34.085Z,100315.94
2022-10-11T06:24:06.445Z,100312.44
2022-10-11T06:24:38.298Z,100315.78
2022-10-11T06:25:10.854Z,100314.66
2022-10-11T06:25:42.692Z,100313.81
2022-10-11T06:26:14.555Z,100314.53
2022-10-11T06:26:49.045Z,100313.88
2022-10-11T06:27:20.975Z,100325.41
2022-10-11T06:27:52.861Z,100315.09
2022-10-11T06:28:27.208Z,100316.62
2022-10-11T06:28:59.256Z,100320.28
2022-10-11T06:29:31.140Z,100320.19
2022-10-11T06:30:03.491Z,100310.38
2022-10-11T06:30:35.476Z,100319.25
2022-10-11T06:31:07.584Z,100321.56
2022-10-11T06:31:39.512Z,100319.63
2022-10-11T06:32:13.308Z,100320.56
2022-10-11T06:32:45.183Z,100311.44
2022-10-11T06:33:17.183Z,100315.25
2022-10-11T06:33:49.301Z,100314.53
2022-10-11T06:34:21.527Z,100314.16
2022-10-11T06:34:53.453Z,100315.78
2022-10-11T06:35:25.324Z,100321.75
2022-10-11T06:35:59.331Z,100311.56
2022-10-11T06:36:31.272Z,100318.53
2022-10-11T06:37:03.172Z,100311.69